sensor_id;sensor_type;location;lat;lon;timestamp;temperature;humidity
67868;SHT31;54672;46.096;14.470;2022-12-11T00:00:39;0.91;99.99
67868;SHT31;54672;46.096;14.470;2022-12-11T00:03:05;0.97;99.99
67868;SHT31;54672;46.096;14.470;2022-12-11T00:05:30;0.91;99.99
67868;SHT31;54672;46.096;14.470;2022-12-11T00:07:55;0.92;99.99
67868;SHT31;54672;46.096;14.470;2022-12-11T00:10:22;0.97;99.99
67868;SHT31;54672;46.096;14.470;2022-12-11T00:12:47;1.04;99.99
67868;SHT31;54672;46.096;14.470;2022-12-11T00:15:12;1.07;99.99
67868;SHT31;54672;46.096;14.470;2022-12-11T00:17:38;1.06;99.99
67868;SHT31;54672;46.096;14.470;2022-12-11T00:20:04;0.92;99.99
67868;SHT31;54672;46.096;14.470;2022-12-11T00:22:29;0.99;99.99
67868;SHT31;54672;46.096;14.470;2022-12-11T00:24:55;1.04;99.99
67868;SHT31;54672;46.096;14.470;2022-12-11T00:27:20;1.03;99.99
67868;SHT31;54672;46.096;14.470;2022-12-11T00:29:46;1.07;99.99
67868;SHT31;54672;46.096;14.470;2022-12-11T00:32:11;1.15;99.99
67868;SHT31;54672;46.096;14.470;2022-12-11T00:34:36;1.23;99.99
67868;SHT31;54672;46.096;14.470;2022-12-11T00:37:02;1.29;99.99
67868;SHT31;54672;46.096;14.470;2022-12-11T00:39:27;1.34;99.99
67868;SHT31;54672;46.096;14.470;2022-12-11T00:41:53;1.37;99.99
67868;SHT31;54672;46.096;14.470;2022-12-11T00:44:18;1.41;99.99
67868;SHT31;54672;46.096;14.470;2022-12-11T00:46:44;1.43;99.99
67868;SHT31;54672;46.096;14.470;2022-12-11T00:49:09;1.43;99.99
67868;SHT31;54672;46.096;14.470;2022-12-11T00:51:34;1.44;99.99
67868;SHT31;54672;46.096;14.470;2022-12-11T00:54:00;1.51;99.99
67868;SHT31;54672;46.096;14.470;2022-12-11T00:56:25;1.50;99.99
67868;SHT31;54672;46.096;14.470;2022-12-11T00:58:51;1.48;99.99
67868;SHT31;54672;46.096;14.470;2022-12-11T01:01:19;1.57;99.99
67868;SHT31;54672;46.096;14.470;2022-12-11T01:03:45;1.60;99.99
67868;SHT31;54672;46.096;14.470;2022-12-11T01:06:15;1.57;99.78
67868;SHT31;54672;46.096;14.470;2022-12-11T01:08:41;1.53;99.65
67868;SHT31;54672;46.096;14.470;2022-12-11T01:11:09;1.36;99.81
67868;SHT31;54672;46.096;14.470;2022-12-11T01:13:35;1.27;99.99
67868;SHT31;54672;46.096;14.470;2022-12-11T01:16:10;1.33;99.99
67868;SHT31;54672;46.096;14.470;2022-12-11T01:18:35;1.41;99.99
67868;SHT31;54672;46.096;14.470;2022-12-11T01:21:10;1.37;99.99
67868;SHT31;54672;46.096;14.470;2022-12-11T01:23:36;1.39;99.99
67868;SHT31;54672;46.096;14.470;2022-12-11T01:26:10;1.39;99.99
67868;SHT31;54672;46.096;14.470;2022-12-11T01:28:36;1.40;99.99
67868;SHT31;54672;46.096;14.470;2022-12-11T01:31:06;1.34;99.99
67868;SHT31;54672;46.096;14.470;2022-12-11T01:33:32;1.40;99.99
67868;SHT31;54672;46.096;14.470;2022-12-11T01:35:57;1.43;99.99
67868;SHT31;54672;46.096;14.470;2022-12-11T01:38:23;1.41;99.96
67868;SHT31;54672;46.096;14.470;2022-12-11T01:40:50;1.36;99.99
67868;SHT31;54672;46.096;14.470;2022-12-11T01:43:15;1.39;99.99
67868;SHT31;54672;46.096;14.470;2022-12-11T01:45:43;1.41;99.99
67868;SHT31;54672;46.096;14.470;2022-12-11T01:48:21;1.43;99.99
67868;SHT31;54672;46.096;14.470;2022-12-11T01:50:54;1.43;99.99
67868;SHT31;54672;46.096;14.470;2022-12-11T01:53:33;1.43;99.99
67868;SHT31;54672;46.096;14.470;2022-12-11T01:55:59;1.48;99.99
67868;SHT31;54672;46.096;14.470;2022-12-11T01:58:29;1.51;99.99
67868;SHT31;54672;46.096;14.470;2022-12-11T02:00:56;1.51;99.92
67868;SHT31;54672;46.096;14.470;2022-12-11T02:03:22;1.47;99.99
67868;SHT31;54672;46.096;14.470;2022-12-11T02:05:47;1.46;99.99
67868;SHT31;54672;46.096;14.470;2022-12-11T02:08:13;1.48;99.99
67868;SHT31;54672;46.096;14.470;2022-12-11T02:16:20;1.53;99.99
67868;SHT31;54672;46.096;14.470;2022-12-11T02:18:54;1.57;99.99
67868;SHT31;54672;46.096;14.470;2022-12-11T02:21:31;1.62;99.99
67868;SHT31;54672;46.096;14.470;2022-12-11T02:30:09;1.62;99.99
67868;SHT31;54672;46.096;14.470;2022-12-11T02:35:17;1.67;99.99
67868;SHT31;54672;46.096;14.470;2022-12-11T02:37:46;1.67;99.99
67868;SHT31;54672;46.096;14.470;2022-12-11T02:40:14;1.71;99.99
67868;SHT31;54672;46.096;14.470;2022-12-11T02:42:43;1.71;99.99
67868;SHT31;54672;46.096;14.470;2022-12-11T02:45:09;1.71;99.99
67868;SHT31;54672;46.096;14.470;2022-12-11T02:47:36;1.71;99.99
67868;SHT31;54672;46.096;14.470;2022-12-11T02:50:07;1.77;99.99
67868;SHT31;54672;46.096;14.470;2022-12-11T02:52:34;1.68;99.98
67868;SHT31;54672;46.096;14.470;2022-12-11T02:55:02;1.60;99.99
67868;SHT31;54672;46.096;14.470;2022-12-11T02:57:35;1.51;99.99
67868;SHT31;54672;46.096;14.470;2022-12-11T03:00:03;1.54;99.99
67868;SHT31;54672;46.096;14.470;2022-12-11T03:02:29;1.57;99.99
67868;SHT31;54672;46.096;14.470;2022-12-11T03:04:55;1.62;99.99
67868;SHT31;54672;46.096;14.470;2022-12-11T03:07:25;1.61;99.99
67868;SHT31;54672;46.096;14.470;2022-12-11T03:09:51;1.58;99.99
67868;SHT31;54672;46.096;14.470;2022-12-11T03:12:24;1.60;99.99
67868;SHT31;54672;46.096;14.470;2022-12-11T03:14:49;1.60;99.99
67868;SHT31;54672;46.096;14.470;2022-12-11T03:19:49;1.62;99.99
67868;SHT31;54672;46.096;14.470;2022-12-11T03:25:41;1.61;99.31
67868;SHT31;54672;46.096;14.470;2022-12-11T03:28:15;1.53;99.71
67868;SHT31;54672;46.096;14.470;2022-12-11T03:30:44;1.50;99.89
67868;SHT31;54672;46.096;14.470;2022-12-11T03:33:24;1.36;99.99
67868;SHT31;54672;46.096;14.470;2022-12-11T03:35:54;1.41;99.99
67868;SHT31;54672;46.096;14.470;2022-12-11T03:38:30;1.47;99.99
67868;SHT31;54672;46.096;14.470;2022-12-11T03:41:00;1.57;99.99
67868;SHT31;54672;46.096;14.470;2022-12-11T03:43:27;1.61;99.99
67868;SHT31;54672;46.096;14.470;2022-12-11T03:45:54;1.61;99.99
67868;SHT31;54672;46.096;14.470;2022-12-11T03:48:20;1.62;99.99
67868;SHT31;54672;46.096;14.470;2022-12-11T03:50:47;1.60;99.99
67868;SHT31;54672;46.096;14.470;2022-12-11T03:53:14;1.60;99.99
67868;SHT31;54672;46.096;14.470;2022-12-11T03:55:40;1.58;99.99
67868;SHT31;54672;46.096;14.470;2022-12-11T03:58:06;1.62;99.99
67868;SHT31;54672;46.096;14.470;2022-12-11T04:00:31;1.65;99.99
67868;SHT31;54672;46.096;14.470;2022-12-11T04:02:57;1.51;99.99
67868;SHT31;54672;46.096;14.470;2022-12-11T04:05:49;1.55;99.99
67868;SHT31;54672;46.096;14.470;2022-12-11T04:08:19;1.58;99.99
67868;SHT31;54672;46.096;14.470;2022-12-11T04:10:45;1.64;99.99
67868;SHT31;54672;46.096;14.470;2022-12-11T04:13:10;1.64;99.99
67868;SHT31;54672;46.096;14.470;2022-12-11T04:15:37;1.68;99.99
67868;SHT31;54672;46.096;14.470;2022-12-11T04:18:03;1.67;99.99
67868;SHT31;54672;46.096;14.470;2022-12-11T04:20:47;1.67;99.99
67868;SHT31;54672;46.096;14.470;2022-12-11T04:23:31;1.50;99.99
67868;SHT31;54672;46.096;14.470;2022-12-11T04:26:18;1.19;99.99
67868;SHT31;54672;46.096;14.470;2022-12-11T04:28:45;1.29;99.99
67868;SHT31;54672;46.096;14.470;2022-12-11T04:31:12;1.36;99.99
67868;SHT31;54672;46.096;14.470;2022-12-11T04:33:38;1.40;99.99
67868;SHT31;54672;46.096;14.470;2022-12-11T04:36:04;1.41;99.99
67868;SHT31;54672;46.096;14.470;2022-12-11T04:38:29;1.37;99.99
67868;SHT31;54672;46.096;14.470;2022-12-11T04:41:03;1.43;99.99
67868;SHT31;54672;46.096;14.470;2022-12-11T04:43:29;1.46;99.99
67868;SHT31;54672;46.096;14.470;2022-12-11T04:46:05;1.57;99.99
67868;SHT31;54672;46.096;14.470;2022-12-11T04:48:30;1.58;99.99
67868;SHT31;54672;46.096;14.470;2022-12-11T04:50:56;1.61;99.99
67868;SHT31;54672;46.096;14.470;2022-12-11T04:53:22;1.62;99.99
67868;SHT31;54672;46.096;14.470;2022-12-11T04:55:47;1.62;99.99
67868;SHT31;54672;46.096;14.470;2022-12-11T04:58:13;1.61;99.99
67868;SHT31;54672;46.096;14.470;2022-12-11T05:00:39;1.65;99.99
67868;SHT31;54672;46.096;14.470;2022-12-11T05:03:05;1.67;99.99
67868;SHT31;54672;46.096;14.470;2022-12-11T05:05:30;1.62;99.99
67868;SHT31;54672;46.096;14.470;2022-12-11T05:07:56;1.64;99.99
67868;SHT31;54672;46.096;14.470;2022-12-11T05:10:21;1.51;99.99
67868;SHT31;54672;46.096;14.470;2022-12-11T05:12:46;1.41;99.99
67868;SHT31;54672;46.096;14.470;2022-12-11T05:15:12;1.33;99.99
67868;SHT31;54672;46.096;14.470;2022-12-11T05:17:37;1.23;99.99
67868;SHT31;54672;46.096;14.470;2022-12-11T05:20:03;1.23;99.99
67868;SHT31;54672;46.096;14.470;2022-12-11T05:22:29;1.23;99.99
67868;SHT31;54672;46.096;14.470;2022-12-11T05:24:56;1.17;99.99
67868;SHT31;54672;46.096;14.470;2022-12-11T05:27:22;1.10;99.99
67868;SHT31;54672;46.096;14.470;2022-12-11T05:29:48;1.10;99.99
67868;SHT31;54672;46.096;14.470;2022-12-11T05:32:13;1.09;99.99
67868;SHT31;54672;46.096;14.470;2022-12-11T05:34:39;1.09;99.99
67868;SHT31;54672;46.096;14.470;2022-12-11T05:37:04;1.09;99.99
67868;SHT31;54672;46.096;14.470;2022-12-11T05:39:30;1.10;99.99
67868;SHT31;54672;46.096;14.470;2022-12-11T05:41:55;1.13;99.99
67868;SHT31;54672;46.096;14.470;2022-12-11T05:44:21;1.19;99.99
67868;SHT31;54672;46.096;14.470;2022-12-11T05:46:46;1.15;99.99
67868;SHT31;54672;46.096;14.470;2022-12-11T05:49:12;1.09;99.99
67868;SHT31;54672;46.096;14.470;2022-12-11T05:51:37;1.15;99.99
67868;SHT31;54672;46.096;14.470;2022-12-11T05:54:03;1.10;99.99
67868;SHT31;54672;46.096;14.470;2022-12-11T05:56:31;1.04;99.99
67868;SHT31;54672;46.096;14.470;2022-12-11T05:58:57;1.07;99.99
67868;SHT31;54672;46.096;14.470;2022-12-11T06:01:42;1.12;99.99
67868;SHT31;54672;46.096;14.470;2022-12-11T06:04:09;1.09;99.99
67868;SHT31;54672;46.096;14.470;2022-12-11T06:06:35;1.15;99.99
67868;SHT31;54672;46.096;14.470;2022-12-11T06:09:02;1.10;99.99
67868;SHT31;54672;46.096;14.470;2022-12-11T06:11:28;1.15;99.99
67868;SHT31;54672;46.096;14.470;2022-12-11T06:13:55;1.20;99.99
67868;SHT31;54672;46.096;14.470;2022-12-11T06:16:21;1.22;99.99
67868;SHT31;54672;46.096;14.470;2022-12-11T06:18:46;1.16;99.99
67868;SHT31;54672;46.096;14.470;2022-12-11T06:24:04;1.20;99.99
67868;SHT31;54672;46.096;14.470;2022-12-11T06:26:30;1.22;99.99
67868;SHT31;54672;46.096;14.470;2022-12-11T06:28:56;1.10;99.99
67868;SHT31;54672;46.096;14.470;2022-12-11T06:31:21;1.07;99.99
67868;SHT31;54672;46.096;14.470;2022-12-11T06:33:47;1.13;99.99
67868;SHT31;54672;46.096;14.470;2022-12-11T06:36:19;1.06;99.99
67868;SHT31;54672;46.096;14.470;2022-12-11T06:38:45;1.07;99.99
67868;SHT31;54672;46.096;14.470;2022-12-11T06:41:12;1.06;99.99
67868;SHT31;54672;46.096;14.470;2022-12-11T06:43:38;1.06;99.99
67868;SHT31;54672;46.096;14.470;2022-12-11T06:46:12;1.04;99.99
67868;SHT31;54672;46.096;14.470;2022-12-11T06:48:38;1.06;99.99
67868;SHT31;54672;46.096;14.470;2022-12-11T06:51:09;1.10;99.99
67868;SHT31;54672;46.096;14.470;2022-12-11T06:53:35;1.10;99.99
67868;SHT31;54672;46.096;14.470;2022-12-11T06:56:06;1.16;99.99
67868;SHT31;54672;46.096;14.470;2022-12-11T06:58:34;1.17;99.99
67868;SHT31;54672;46.096;14.470;2022-12-11T07:00:59;1.15;99.99
67868;SHT31;54672;46.096;14.470;2022-12-11T07:03:26;1.15;99.99
67868;SHT31;54672;46.096;14.470;2022-12-11T07:05:52;1.19;99.99
67868;SHT31;54672;46.096;14.470;2022-12-11T07:08:17;1.13;99.99
67868;SHT31;54672;46.096;14.470;2022-12-11T07:10:42;1.23;99.99
67868;SHT31;54672;46.096;14.470;2022-12-11T07:13:08;1.29;99.99
67868;SHT31;54672;46.096;14.470;2022-12-11T07:15:33;1.26;99.99
67868;SHT31;54672;46.096;14.470;2022-12-11T07:17:59;1.27;99.99
67868;SHT31;54672;46.096;14.470;2022-12-11T07:20:24;1.27;99.99
67868;SHT31;54672;46.096;14.470;2022-12-11T07:22:50;1.40;99.99
67868;SHT31;54672;46.096;14.470;2022-12-11T07:25:15;1.30;99.99
67868;SHT31;54672;46.096;14.470;2022-12-11T07:27:41;1.27;99.99
67868;SHT31;54672;46.096;14.470;2022-12-11T07:30:07;1.23;99.99
67868;SHT31;54672;46.096;14.470;2022-12-11T07:32:33;1.24;99.99
67868;SHT31;54672;46.096;14.470;2022-12-11T07:34:58;1.23;99.99
67868;SHT31;54672;46.096;14.470;2022-12-11T07:37:24;1.29;99.99
67868;SHT31;54672;46.096;14.470;2022-12-11T07:39:49;1.39;99.99
67868;SHT31;54672;46.096;14.470;2022-12-11T07:42:15;1.48;99.99
67868;SHT31;54672;46.096;14.470;2022-12-11T07:44:40;1.61;99.99
67868;SHT31;54672;46.096;14.470;2022-12-11T07:47:06;1.61;99.99
67868;SHT31;54672;46.096;14.470;2022-12-11T07:49:31;1.71;99.99
67868;SHT31;54672;46.096;14.470;2022-12-11T07:51:57;1.75;99.99
67868;SHT31;54672;46.096;14.470;2022-12-11T07:54:22;1.78;99.99
67868;SHT31;54672;46.096;14.470;2022-12-11T07:56:48;1.78;99.99
67868;SHT31;54672;46.096;14.470;2022-12-11T07:59:13;1.79;99.99
67868;SHT31;54672;46.096;14.470;2022-12-11T08:01:40;1.82;99.99
67868;SHT31;54672;46.096;14.470;2022-12-11T08:04:08;1.81;99.99
67868;SHT31;54672;46.096;14.470;2022-12-11T08:06:36;1.81;99.99
67868;SHT31;54672;46.096;14.470;2022-12-11T08:09:05;1.77;99.99
67868;SHT31;54672;46.096;14.470;2022-12-11T08:11:31;1.85;99.99
67868;SHT31;54672;46.096;14.470;2022-12-11T08:13:57;1.82;99.86
67868;SHT31;54672;46.096;14.470;2022-12-11T08:16:27;1.79;99.99
67868;SHT31;54672;46.096;14.470;2022-12-11T08:18:52;1.71;99.99
67868;SHT31;54672;46.096;14.470;2022-12-11T08:21:20;1.81;99.99
67868;SHT31;54672;46.096;14.470;2022-12-11T08:23:47;1.85;99.99
67868;SHT31;54672;46.096;14.470;2022-12-11T08:26:16;1.94;99.99
67868;SHT31;54672;46.096;14.470;2022-12-11T08:28:42;1.79;99.99
67868;SHT31;54672;46.096;14.470;2022-12-11T08:31:08;1.60;99.99
67868;SHT31;54672;46.096;14.470;2022-12-11T08:33:35;1.65;99.99
67868;SHT31;54672;46.096;14.470;2022-12-11T08:36:06;1.74;99.99
67868;SHT31;54672;46.096;14.470;2022-12-11T08:38:32;1.79;99.99
67868;SHT31;54672;46.096;14.470;2022-12-11T08:40:58;1.86;99.99
67868;SHT31;54672;46.096;14.470;2022-12-11T08:43:23;1.86;99.99
67868;SHT31;54672;46.096;14.470;2022-12-11T08:45:49;1.91;99.99
67868;SHT31;54672;46.096;14.470;2022-12-11T08:48:15;1.78;99.76
67868;SHT31;54672;46.096;14.470;2022-12-11T08:50:40;1.88;99.99
67868;SHT31;54672;46.096;14.470;2022-12-11T08:53:06;2.11;99.99
67868;SHT31;54672;46.096;14.470;2022-12-11T08:55:32;2.25;99.99
67868;SHT31;54672;46.096;14.470;2022-12-11T08:57:57;2.40;99.99
67868;SHT31;54672;46.096;14.470;2022-12-11T09:00:22;2.53;99.99
67868;SHT31;54672;46.096;14.470;2022-12-11T09:02:48;2.63;99.99
67868;SHT31;54672;46.096;14.470;2022-12-11T09:05:13;2.70;99.92
67868;SHT31;54672;46.096;14.470;2022-12-11T09:07:39;2.74;99.34
67868;SHT31;54672;46.096;14.470;2022-12-11T09:10:05;2.60;97.28
67868;SHT31;54672;46.096;14.470;2022-12-11T09:12:34;2.70;97.96
67868;SHT31;54672;46.096;14.470;2022-12-11T09:15:00;2.81;98.52
67868;SHT31;54672;46.096;14.470;2022-12-11T09:17:25;2.83;98.50
67868;SHT31;54672;46.096;14.470;2022-12-11T09:19:50;2.83;97.69
67868;SHT31;54672;46.096;14.470;2022-12-11T09:22:16;2.84;97.43
67868;SHT31;54672;46.096;14.470;2022-12-11T09:24:41;2.81;96.93
67868;SHT31;54672;46.096;14.470;2022-12-11T09:27:07;2.90;97.67
67868;SHT31;54672;46.096;14.470;2022-12-11T09:29:32;2.95;98.10
67868;SHT31;54672;46.096;14.470;2022-12-11T09:31:58;2.98;98.18
67868;SHT31;54672;46.096;14.470;2022-12-11T09:34:23;3.00;98.49
67868;SHT31;54672;46.096;14.470;2022-12-11T09:36:49;3.01;98.40
67868;SHT31;54672;46.096;14.470;2022-12-11T09:39:15;2.85;97.66
67868;SHT31;54672;46.096;14.470;2022-12-11T09:44:37;2.42;99.67
67868;SHT31;54672;46.096;14.470;2022-12-11T09:47:18;2.47;99.97
67868;SHT31;54672;46.096;14.470;2022-12-11T09:49:46;2.60;99.99
67868;SHT31;54672;46.096;14.470;2022-12-11T09:52:17;2.47;97.61
67868;SHT31;54672;46.096;14.470;2022-12-11T09:54:57;2.44;97.16
67868;SHT31;54672;46.096;14.470;2022-12-11T10:02:39;2.37;99.04
67868;SHT31;54672;46.096;14.470;2022-12-11T10:05:21;2.47;99.71
67868;SHT31;54672;46.096;14.470;2022-12-11T10:07:51;2.44;98.87
67868;SHT31;54672;46.096;14.470;2022-12-11T10:15:53;2.63;99.99
67868;SHT31;54672;46.096;14.470;2022-12-11T10:18:23;2.74;99.75
67868;SHT31;54672;46.096;14.470;2022-12-11T10:20:51;2.74;99.18
67868;SHT31;54672;46.096;14.470;2022-12-11T10:23:23;2.65;98.89
67868;SHT31;54672;46.096;14.470;2022-12-11T10:26:05;2.79;99.20
67868;SHT31;54672;46.096;14.470;2022-12-11T10:28:31;2.84;98.78
67868;SHT31;54672;46.096;14.470;2022-12-11T10:31:00;2.73;98.59
67868;SHT31;54672;46.096;14.470;2022-12-11T10:34:08;2.64;97.88
67868;SHT31;54672;46.096;14.470;2022-12-11T10:36:40;2.68;97.96
67868;SHT31;54672;46.096;14.470;2022-12-11T10:39:17;2.65;98.02
67868;SHT31;54672;46.096;14.470;2022-12-11T10:41:45;2.54;98.05
67868;SHT31;54672;46.096;14.470;2022-12-11T10:44:28;2.68;97.70
67868;SHT31;54672;46.096;14.470;2022-12-11T10:47:13;2.76;97.87
67868;SHT31;54672;46.096;14.470;2022-12-11T10:49:52;2.79;97.71
67868;SHT31;54672;46.096;14.470;2022-12-11T10:52:23;2.63;97.70
67868;SHT31;54672;46.096;14.470;2022-12-11T10:57:45;2.39;98.13
67868;SHT31;54672;46.096;14.470;2022-12-11T11:00:33;2.44;98.18
67868;SHT31;54672;46.096;14.470;2022-12-11T11:03:00;2.21;98.29
67868;SHT31;54672;46.096;14.470;2022-12-11T11:05:30;2.21;98.89
67868;SHT31;54672;46.096;14.470;2022-12-11T11:08:13;2.25;98.68
67868;SHT31;54672;46.096;14.470;2022-12-11T11:10:52;2.25;98.97
67868;SHT31;54672;46.096;14.470;2022-12-11T11:13:20;2.29;99.14
67868;SHT31;54672;46.096;14.470;2022-12-11T11:15:47;2.32;99.00
67868;SHT31;54672;46.096;14.470;2022-12-11T11:18:21;2.33;98.94
67868;SHT31;54672;46.096;14.470;2022-12-11T11:20:49;2.32;98.82
67868;SHT31;54672;46.096;14.470;2022-12-11T11:23:15;2.34;99.19
67868;SHT31;54672;46.096;14.470;2022-12-11T11:25:57;2.40;99.19
67868;SHT31;54672;46.096;14.470;2022-12-11T11:28:26;2.42;99.16
67868;SHT31;54672;46.096;14.470;2022-12-11T11:31:13;2.33;98.78
67868;SHT31;54672;46.096;14.470;2022-12-11T11:33:52;2.37;98.77
67868;SHT31;54672;46.096;14.470;2022-12-11T11:36:22;2.43;98.78
67868;SHT31;54672;46.096;14.470;2022-12-11T11:44:30;2.25;99.40
67868;SHT31;54672;46.096;14.470;2022-12-11T11:52:33;2.34;98.66
67868;SHT31;54672;46.096;14.470;2022-12-11T11:56:14;2.37;98.78
67868;SHT31;54672;46.096;14.470;2022-12-11T11:58:13;2.29;98.99
67868;SHT31;54672;46.096;14.470;2022-12-11T12:00:40;2.32;99.11
67868;SHT31;54672;46.096;14.470;2022-12-11T12:03:17;2.29;99.36
67868;SHT31;54672;46.096;14.470;2022-12-11T12:05:53;2.40;99.02
67868;SHT31;54672;46.096;14.470;2022-12-11T12:08:45;2.25;98.53
67868;SHT31;54672;46.096;14.470;2022-12-11T12:19:48;2.02;99.99
67868;SHT31;54672;46.096;14.470;2022-12-11T12:23:02;1.92;99.77
67868;SHT31;54672;46.096;14.470;2022-12-11T12:25:30;2.11;99.76
67868;SHT31;54672;46.096;14.470;2022-12-11T12:28:12;2.18;99.67
67868;SHT31;54672;46.096;14.470;2022-12-11T12:36:26;1.84;99.20
67868;SHT31;54672;46.096;14.470;2022-12-11T12:39:22;1.75;99.37
67868;SHT31;54672;46.096;14.470;2022-12-11T12:42:22;1.68;99.18
67868;SHT31;54672;46.096;14.470;2022-12-11T12:45:33;1.64;99.37
67868;SHT31;54672;46.096;14.470;2022-12-11T12:47:41;1.54;99.03
67868;SHT31;54672;46.096;14.470;2022-12-11T12:50:14;1.48;99.36
67868;SHT31;54672;46.096;14.470;2022-12-11T12:52:40;1.29;99.04
67868;SHT31;54672;46.096;14.470;2022-12-11T12:57:41;1.23;99.76
67868;SHT31;54672;46.096;14.470;2022-12-11T13:00:09;1.12;99.47
67868;SHT31;54672;46.096;14.470;2022-12-11T13:02:37;0.99;99.65
67868;SHT31;54672;46.096;14.470;2022-12-11T13:05:20;1.13;99.73
67868;SHT31;54672;46.096;14.470;2022-12-11T13:07:52;1.16;99.77
67868;SHT31;54672;46.096;14.470;2022-12-11T13:10:26;1.17;99.92
67868;SHT31;54672;46.096;14.470;2022-12-11T13:12:52;1.12;99.43
67868;SHT31;54672;46.096;14.470;2022-12-11T13:15:40;1.16;99.46
67868;SHT31;54672;46.096;14.470;2022-12-11T13:18:34;1.16;99.64
67868;SHT31;54672;46.096;14.470;2022-12-11T13:21:01;1.23;99.74
67868;SHT31;54672;46.096;14.470;2022-12-11T13:23:30;1.22;99.94
67868;SHT31;54672;46.096;14.470;2022-12-11T13:25:58;1.17;99.87
67868;SHT31;54672;46.096;14.470;2022-12-11T13:28:48;1.02;99.90
67868;SHT31;54672;46.096;14.470;2022-12-11T13:33:44;0.93;99.99
67868;SHT31;54672;46.096;14.470;2022-12-11T13:38:38;0.85;99.99
67868;SHT31;54672;46.096;14.470;2022-12-11T13:41:12;0.91;99.99
67868;SHT31;54672;46.096;14.470;2022-12-11T13:43:39;0.76;99.99
67868;SHT31;54672;46.096;14.470;2022-12-11T13:46:08;0.78;99.99
67868;SHT31;54672;46.096;14.470;2022-12-11T13:48:38;0.78;99.99
67868;SHT31;54672;46.096;14.470;2022-12-11T13:51:05;0.75;99.99
67868;SHT31;54672;46.096;14.470;2022-12-11T13:53:31;0.68;99.99
67868;SHT31;54672;46.096;14.470;2022-12-11T13:58:23;0.66;99.99
67868;SHT31;54672;46.096;14.470;2022-12-11T14:00:55;0.71;99.99
67868;SHT31;54672;46.096;14.470;2022-12-11T14:03:23;0.62;99.99
67868;SHT31;54672;46.096;14.470;2022-12-11T14:05:49;0.54;99.99
67868;SHT31;54672;46.096;14.470;2022-12-11T14:08:23;0.58;99.99
67868;SHT31;54672;46.096;14.470;2022-12-11T14:10:52;0.57;99.99
67868;SHT31;54672;46.096;14.470;2022-12-11T14:13:24;0.52;99.99
67868;SHT31;54672;46.096;14.470;2022-12-11T14:15:51;0.54;99.99
67868;SHT31;54672;46.096;14.470;2022-12-11T14:18:21;0.54;99.99
67868;SHT31;54672;46.096;14.470;2022-12-11T14:20:59;0.50;99.99
67868;SHT31;54672;46.096;14.470;2022-12-11T14:23:29;0.40;99.99
67868;SHT31;54672;46.096;14.470;2022-12-11T14:26:14;0.42;99.99
67868;SHT31;54672;46.096;14.470;2022-12-11T14:28:41;0.38;99.99
67868;SHT31;54672;46.096;14.470;2022-12-11T14:31:07;0.40;99.99
67868;SHT31;54672;46.096;14.470;2022-12-11T14:33:36;0.36;99.99
67868;SHT31;54672;46.096;14.470;2022-12-11T14:36:03;0.32;99.99
67868;SHT31;54672;46.096;14.470;2022-12-11T14:38:34;0.31;99.99
67868;SHT31;54672;46.096;14.470;2022-12-11T14:41:05;0.41;99.99
67868;SHT31;54672;46.096;14.470;2022-12-11T14:43:36;0.40;99.99
67868;SHT31;54672;46.096;14.470;2022-12-11T14:46:17;0.34;99.99
67868;SHT31;54672;46.096;14.470;2022-12-11T14:48:56;0.36;99.99
67868;SHT31;54672;46.096;14.470;2022-12-11T14:51:25;0.37;99.99
67868;SHT31;54672;46.096;14.470;2022-12-11T14:53:53;0.37;99.99
67868;SHT31;54672;46.096;14.470;2022-12-11T14:56:24;0.37;99.99
67868;SHT31;54672;46.096;14.470;2022-12-11T14:58:58;0.36;99.99
67868;SHT31;54672;46.096;14.470;2022-12-11T15:01:28;0.32;99.99
67868;SHT31;54672;46.096;14.470;2022-12-11T15:04:06;0.30;99.99
67868;SHT31;54672;46.096;14.470;2022-12-11T15:06:45;0.30;99.99
67868;SHT31;54672;46.096;14.470;2022-12-11T15:09:25;0.27;99.99
67868;SHT31;54672;46.096;14.470;2022-12-11T15:11:52;0.28;99.99
67868;SHT31;54672;46.096;14.470;2022-12-11T15:14:19;0.34;99.99
67868;SHT31;54672;46.096;14.470;2022-12-11T15:16:47;0.30;99.99
67868;SHT31;54672;46.096;14.470;2022-12-11T15:19:23;0.30;99.99
67868;SHT31;54672;46.096;14.470;2022-12-11T15:21:50;0.40;99.99
67868;SHT31;54672;46.096;14.470;2022-12-11T15:24:25;0.45;99.99
67868;SHT31;54672;46.096;14.470;2022-12-11T15:26:56;0.51;99.99
67868;SHT31;54672;46.096;14.470;2022-12-11T15:29:39;0.61;99.99
67868;SHT31;54672;46.096;14.470;2022-12-11T15:34:41;0.42;99.99
67868;SHT31;54672;46.096;14.470;2022-12-11T15:39:41;0.40;99.99
67868;SHT31;54672;46.096;14.470;2022-12-11T15:42:10;0.50;99.99
67868;SHT31;54672;46.096;14.470;2022-12-11T15:44:39;0.50;99.99
67868;SHT31;54672;46.096;14.470;2022-12-11T15:47:17;0.47;99.99
67868;SHT31;54672;46.096;14.470;2022-12-11T15:49:45;0.50;99.99
67868;SHT31;54672;46.096;14.470;2022-12-11T15:52:10;0.58;99.99
67868;SHT31;54672;46.096;14.470;2022-12-11T15:54:36;0.51;99.99
67868;SHT31;54672;46.096;14.470;2022-12-11T15:57:04;0.52;99.99
67868;SHT31;54672;46.096;14.470;2022-12-11T15:59:31;0.48;99.99
67868;SHT31;54672;46.096;14.470;2022-12-11T16:01:57;0.50;99.99
67868;SHT31;54672;46.096;14.470;2022-12-11T16:04:23;0.42;99.99
67868;SHT31;54672;46.096;14.470;2022-12-11T16:06:49;0.48;99.99
67868;SHT31;54672;46.096;14.470;2022-12-11T16:09:14;0.45;99.99
67868;SHT31;54672;46.096;14.470;2022-12-11T16:11:40;0.50;99.99
67868;SHT31;54672;46.096;14.470;2022-12-11T16:14:05;0.50;99.99
67868;SHT31;54672;46.096;14.470;2022-12-11T16:16:30;0.52;99.99
67868;SHT31;54672;46.096;14.470;2022-12-11T16:18:56;0.41;99.99
67868;SHT31;54672;46.096;14.470;2022-12-11T16:21:21;0.51;99.99
67868;SHT31;54672;46.096;14.470;2022-12-11T16:23:47;0.51;99.99
67868;SHT31;54672;46.096;14.470;2022-12-11T16:26:13;0.55;99.99
67868;SHT31;54672;46.096;14.470;2022-12-11T16:28:40;0.54;99.99
67868;SHT31;54672;46.096;14.470;2022-12-11T16:31:13;0.54;99.99
67868;SHT31;54672;46.096;14.470;2022-12-11T16:33:39;0.58;99.99
67868;SHT31;54672;46.096;14.470;2022-12-11T16:36:15;0.58;99.99
67868;SHT31;54672;46.096;14.470;2022-12-11T16:38:48;0.55;99.99
67868;SHT31;54672;46.096;14.470;2022-12-11T16:41:14;0.55;99.99
67868;SHT31;54672;46.096;14.470;2022-12-11T16:43:39;0.42;99.99
67868;SHT31;54672;46.096;14.470;2022-12-11T16:46:05;0.42;99.99
67868;SHT31;54672;46.096;14.470;2022-12-11T16:48:31;0.41;99.99
67868;SHT31;54672;46.096;14.470;2022-12-11T16:50:56;0.38;99.99
67868;SHT31;54672;46.096;14.470;2022-12-11T16:53:22;0.37;99.99
67868;SHT31;54672;46.096;14.470;2022-12-11T16:55:48;0.36;99.99
67868;SHT31;54672;46.096;14.470;2022-12-11T16:58:14;0.40;99.99
67868;SHT31;54672;46.096;14.470;2022-12-11T17:00:46;0.41;99.99
67868;SHT31;54672;46.096;14.470;2022-12-11T17:03:12;0.37;99.99